Maxwell AFB Gunter Annex, Alabama
Current Conditions -  °F | °C
As of 6:58 AM on Friday 19 Dec 2014 (Local Time) from KMXF Reporting Station
Few Clouds Few Clouds  
Wind Chill: 38°   Ceiling: Unl
Heat Index: 41°   Visibility: 10mi
Dew Point: 36°   Wind: 5mph
Humidity: 84%   Direction: 50°NE
Pressure: 30.17"   Gusts: NA
Location:  32.4045°N, 86.2459°W
Report Text: KMXF 191258Z AUTO 05004KT 10SM FEW190 05/02 A3017 RMK AO2 SLP220 T00490024
Loading
Personal Weather Stations






























Interactive Weather Map New forecast layout! Learn more

10-Day Weather Forecast

Advertisements
Track Severe Weather on mobile